createdAt,value
2023-02-18T00:00:33.341Z,96415
2023-02-18T00:01:42.036Z,96415
2023-02-18T00:02:52.780Z,96418
2023-02-18T00:04:00.345Z,96431
2023-02-18T00:05:09.993Z,96417
2023-02-18T00:06:18.686Z,96416
2023-02-18T00:07:28.366Z,96411
2023-02-18T00:08:37.999Z,96409
2023-02-18T00:09:46.669Z,96410
2023-02-18T00:10:56.337Z,96419
2023-02-18T00:12:06.052Z,96413
2023-02-18T00:13:13.696Z,96419
2023-02-18T00:14:22.410Z,96408
2023-02-18T00:15:31.103Z,96406
2023-02-18T00:16:39.747Z,96401
2023-02-18T00:17:49.390Z,96400
2023-02-18T00:18:57.050Z,96400
2023-02-18T00:20:05.677Z,96398
2023-02-18T00:21:15.355Z,96394
2023-02-18T00:22:25.022Z,96389
2023-02-18T00:23:34.705Z,96394
2023-02-18T00:24:45.332Z,96396
2023-02-18T00:25:55.005Z,96390
2023-02-18T00:27:04.677Z,96397
2023-02-18T00:28:13.333Z,96382
2023-02-18T00:29:21.997Z,96384
2023-02-18T00:30:31.651Z,96382
2023-02-18T00:31:39.429Z,96381
2023-02-18T00:32:48.004Z,96386
2023-02-18T00:33:56.736Z,96386
2023-02-18T00:35:05.353Z,96388
2023-02-18T00:36:15.024Z,96396
2023-02-18T00:37:23.750Z,96389
2023-02-18T00:38:32.391Z,96392
2023-02-18T00:39:42.074Z,96385
2023-02-18T00:40:51.731Z,96394
2023-02-18T00:42:01.409Z,96389
2023-02-18T00:43:10.048Z,96393
2023-02-18T00:44:19.699Z,96385
2023-02-18T00:45:29.386Z,96381
2023-02-18T00:46:37.129Z,96381
2023-02-18T00:47:45.717Z,96379
2023-02-18T00:48:55.366Z,96374
2023-02-18T00:50:04.022Z,96383
2023-02-18T00:51:12.661Z,96378
2023-02-18T00:52:21.375Z,96385
2023-02-18T00:53:30.013Z,96382
2023-02-18T00:54:39.664Z,96381
2023-02-18T00:55:47.327Z,96375
2023-02-18T00:56:55.970Z,96377
2023-02-18T00:58:05.674Z,96379
2023-02-18T00:59:14.328Z,96379
2023-02-18T01:00:23.070Z,96385
2023-02-18T01:01:32.832Z,96382
2023-02-18T01:02:42.439Z,96380
2023-02-18T01:03:52.097Z,96382
2023-02-18T01:05:00.798Z,96393
2023-02-18T01:06:09.631Z,96383
2023-02-18T01:07:19.086Z,96383
2023-02-18T01:08:27.739Z,96377
2023-02-18T01:09:37.396Z,96372
2023-02-18T01:10:47.050Z,96374
2023-02-18T01:11:56.741Z,96376
2023-02-18T01:13:06.372Z,96379
2023-02-18T01:14:15.021Z,96379
2023-02-18T01:15:23.689Z,96373
2023-02-18T01:16:33.428Z,96372
2023-02-18T01:17:42.041Z,96376
2023-02-18T01:18:50.709Z,96370
2023-02-18T01:20:00.371Z,96375
2023-02-18T01:21:09.096Z,96372
2023-02-18T01:22:17.802Z,96375
2023-02-18T01:23:26.437Z,96378
2023-02-18T01:24:35.087Z,96368
2023-02-18T01:25:44.738Z,96367
2023-02-18T01:26:52.401Z,96359
2023-02-18T01:28:02.103Z,96371
2023-02-18T01:29:11.738Z,96367
2023-02-18T01:30:21.411Z,96369
2023-02-18T01:31:30.114Z,96368
2023-02-18T01:32:37.737Z,96359
2023-02-18T01:33:47.398Z,96353
2023-02-18T01:34:57.095Z,96362
2023-02-18T01:36:04.752Z,96360
2023-02-18T01:37:13.408Z,96365
2023-02-18T01:38:23.092Z,96363
2023-02-18T01:39:32.774Z,96365
2023-02-18T01:40:42.489Z,96368
2023-02-18T01:41:51.139Z,96365
2023-02-18T01:42:59.797Z,96356
2023-02-18T01:44:09.481Z,96363
2023-02-18T01:45:19.113Z,96366
2023-02-18T01:46:27.817Z,96369
2023-02-18T01:47:36.487Z,96375
2023-02-18T01:48:45.140Z,96375
2023-02-18T01:49:54.904Z,96363
2023-02-18T01:51:02.550Z,96371
2023-02-18T01:52:11.217Z,96365
2023-02-18T01:53:20.941Z,96364
2023-02-18T01:54:29.578Z,96365
2023-02-18T01:55:39.272Z,96365
2023-02-18T01:56:46.896Z,96366
2023-02-18T01:57:56.567Z,96366
2023-02-18T01:59:05.242Z,96358
2023-02-18T02:00:14.923Z,96358
2023-02-18T02:01:24.556Z,96360
2023-02-18T02:02:33.215Z,96358
2023-02-18T02:03:42.918Z,96362
2023-02-18T02:04:52.614Z,96359
2023-02-18T02:06:00.259Z,96362
2023-02-18T02:07:08.901Z,96363
2023-02-18T02:08:17.588Z,96367
2023-02-18T02:09:26.227Z,96366
2023-02-18T02:10:35.902Z,96365
2023-02-18T02:11:44.538Z,96366
2023-02-18T02:12:53.245Z,96356
2023-02-18T02:14:02.890Z,96361
2023-02-18T02:15:11.543Z,96357
2023-02-18T02:16:21.250Z,96355
2023-02-18T02:17:30.912Z,96360
2023-02-18T02:18:39.611Z,96353
2023-02-18T02:19:49.266Z,96346
2023-02-18T02:20:58.936Z,96352
2023-02-18T02:22:08.577Z,96351
2023-02-18T02:23:18.257Z,96349
2023-02-18T02:24:25.905Z,96346
2023-02-18T02:25:34.569Z,96336
2023-02-18T02:26:43.219Z,96339
2023-02-18T02:27:51.867Z,96336
2023-02-18T02:29:01.567Z,96350
2023-02-18T02:30:10.296Z,96332
2023-02-18T02:31:19.973Z,96341
2023-02-18T02:32:29.579Z,96346
2023-02-18T02:33:39.236Z,96339
2023-02-18T02:34:47.929Z,96338
2023-02-18T02:35:56.561Z,96338
2023-02-18T02:37:05.208Z,96349
2023-02-18T02:38:14.874Z,96345
2023-02-18T02:39:24.557Z,96341
2023-02-18T02:40:34.196Z,96343
2023-02-18T02:41:43.858Z,96343
2023-02-18T02:42:51.523Z,96343
2023-02-18T02:44:01.205Z,96342
2023-02-18T02:45:09.859Z,96338
2023-02-18T02:46:18.511Z,96354
2023-02-18T02:47:28.178Z,96344
2023-02-18T02:48:36.919Z,96345
2023-02-18T02:49:46.501Z,96337
2023-02-18T02:50:56.186Z,96334
2023-02-18T02:52:04.834Z,96338
2023-02-18T02:53:13.481Z,96334
2023-02-18T02:54:23.191Z,96341
2023-02-18T02:55:31.845Z,96341
2023-02-18T02:56:41.585Z,96338
2023-02-18T02:57:49.253Z,96338
2023-02-18T02:58:58.912Z,96329
2023-02-18T03:00:08.556Z,96335
2023-02-18T03:01:17.214Z,96323
2023-02-18T03:02:26.891Z,96325
2023-02-18T03:03:35.530Z,96320
2023-02-18T03:04:45.258Z,96323
2023-02-18T03:05:54.965Z,96325
2023-02-18T03:07:03.616Z,96315
2023-02-18T03:08:12.250Z,96317
2023-02-18T03:09:21.925Z,96319
2023-02-18T03:10:31.580Z,96323
2023-02-18T03:11:41.256Z,96323
2023-02-18T03:12:49.903Z,96324
2023-02-18T03:13:59.577Z,96323
2023-02-18T03:15:09.227Z,96323
2023-02-18T03:16:18.006Z,96320
2023-02-18T03:17:26.528Z,96316
2023-02-18T03:18:35.201Z,96315
2023-02-18T03:19:42.997Z,96319
2023-02-18T03:20:52.654Z,96317
2023-02-18T03:22:02.288Z,96322
2023-02-18T03:23:10.936Z,96314
2023-02-18T03:24:20.633Z,96322
2023-02-18T03:25:28.285Z,96328
2023-02-18T03:26:36.934Z,96320
2023-02-18T03:27:46.591Z,96320
2023-02-18T03:28:56.263Z,96325
2023-02-18T03:30:05.999Z,96316
2023-02-18T03:31:14.605Z,96335
2023-02-18T03:32:24.309Z,96334
2023-02-18T03:33:33.904Z,96326
2023-02-18T03:34:42.578Z,96322
2023-02-18T03:35:51.219Z,96317
2023-02-18T03:37:00.911Z,96326
2023-02-18T03:38:10.555Z,96320
2023-02-18T03:39:19.231Z,96324
2023-02-18T03:40:27.884Z,96323
2023-02-18T03:41:36.595Z,96328
2023-02-18T03:42:45.312Z,96325
2023-02-18T03:43:53.976Z,96320
2023-02-18T03:45:03.657Z,96319
2023-02-18T03:46:13.342Z,96329
2023-02-18T03:47:21.985Z,96325
2023-02-18T03:48:31.628Z,96317
2023-02-18T03:49:40.308Z,96314
2023-02-18T03:50:47.977Z,96319
2023-02-18T03:51:57.623Z,96310
2023-02-18T03:53:05.277Z,96312
2023-02-18T03:54:14.915Z,96308
2023-02-18T03:55:24.589Z,96310
2023-02-18T03:56:34.275Z,96322
2023-02-18T03:57:43.951Z,96311
2023-02-18T03:58:52.626Z,96302
2023-02-18T04:00:02.293Z,96300
2023-02-18T04:01:11.967Z,96305
2023-02-18T04:02:21.602Z,96318
2023-02-18T04:03:31.296Z,96314
2023-02-18T04:04:38.993Z,96308
2023-02-18T04:05:47.608Z,96308
2023-02-18T04:06:57.349Z,96306
2023-02-18T04:08:04.926Z,96307
2023-02-18T04:09:15.588Z,96314
2023-02-18T04:10:25.291Z,96316
2023-02-18T04:11:34.952Z,96317
2023-02-18T04:12:43.602Z,96302
2023-02-18T04:13:52.284Z,96301
2023-02-18T04:15:00.963Z,96315
2023-02-18T04:16:10.671Z,96313
2023-02-18T04:17:19.288Z,96316
2023-02-18T04:18:27.954Z,96310
2023-02-18T04:19:35.623Z,96320
2023-02-18T04:20:45.264Z,96312
2023-02-18T04:21:54.935Z,96317
2023-02-18T04:23:02.587Z,96307
2023-02-18T04:24:11.224Z,96308
2023-02-18T04:25:20.924Z,96309
2023-02-18T04:26:30.570Z,96311
2023-02-18T04:27:39.303Z,96315
2023-02-18T04:28:48.998Z,96314
2023-02-18T04:29:57.704Z,96315
2023-02-18T04:31:07.429Z,96312
2023-02-18T04:32:16.008Z,96311
2023-02-18T04:33:24.646Z,96311
2023-02-18T04:34:34.311Z,96311
2023-02-18T04:35:42.178Z,96313
2023-02-18T04:36:51.632Z,96308
2023-02-18T04:38:00.284Z,96318
2023-02-18T04:39:08.938Z,96313
2023-02-18T04:40:18.625Z,96317
2023-02-18T04:41:28.286Z,96321
2023-02-18T04:42:36.936Z,96339
2023-02-18T04:43:46.594Z,96328
2023-02-18T04:44:54.238Z,96313
2023-02-18T04:46:02.964Z,96316
2023-02-18T04:47:11.565Z,96323
2023-02-18T04:48:21.229Z,96323
2023-02-18T04:49:30.877Z,96319
2023-02-18T04:50:40.557Z,96312
2023-02-18T04:51:50.192Z,96322
2023-02-18T04:52:59.843Z,96320
2023-02-18T04:54:09.537Z,96326
2023-02-18T04:55:19.189Z,96316
2023-02-18T04:56:28.839Z,96325
2023-02-18T04:57:37.563Z,96329
2023-02-18T04:58:47.183Z,96327
2023-02-18T04:59:55.833Z,96323
2023-02-18T05:01:04.530Z,96336
2023-02-18T05:02:14.161Z,96329
2023-02-18T05:03:23.831Z,96331
2023-02-18T05:04:32.509Z,96320
2023-02-18T05:05:40.171Z,96322
2023-02-18T05:06:49.847Z,96334
2023-02-18T05:07:59.532Z,96322
2023-02-18T05:09:09.174Z,96342
2023-02-18T05:10:18.846Z,96331
2023-02-18T05:11:28.545Z,96333
2023-02-18T05:12:38.222Z,96320
2023-02-18T05:13:47.880Z,96317
2023-02-18T05:14:57.511Z,96314
2023-02-18T05:16:06.567Z,96311
2023-02-18T05:17:15.872Z,96309
2023-02-18T05:18:25.520Z,96312
2023-02-18T05:19:35.176Z,96312
2023-02-18T05:20:44.872Z,96307
2023-02-18T05:21:52.519Z,96306
2023-02-18T05:23:02.156Z,96311
2023-02-18T05:24:11.820Z,96311
2023-02-18T05:25:21.476Z,96308
2023-02-18T05:26:31.128Z,96316
2023-02-18T05:27:39.810Z,96310
2023-02-18T05:28:49.443Z,96333
2023-02-18T05:29:59.147Z,96309
2023-02-18T05:31:09.015Z,96309
2023-02-18T05:32:18.548Z,96304
2023-02-18T05:33:27.197Z,96303
2023-02-18T05:34:36.858Z,96305
2023-02-18T05:35:46.531Z,96309
2023-02-18T05:36:54.177Z,96307
2023-02-18T05:38:03.840Z,96310
2023-02-18T05:39:13.488Z,96310
2023-02-18T05:40:22.131Z,96301
2023-02-18T05:41:29.804Z,96307
2023-02-18T05:42:38.450Z,96310
2023-02-18T05:43:48.141Z,96305
2023-02-18T05:44:57.783Z,96308
2023-02-18T05:46:06.716Z,96306
2023-02-18T05:47:16.088Z,96302
2023-02-18T05:48:25.735Z,96312
2023-02-18T05:49:33.372Z,96307
2023-02-18T05:50:42.056Z,96298
2023-02-18T05:51:51.696Z,96302
2023-02-18T05:53:01.359Z,96305
2023-02-18T05:54:11.016Z,96313
2023-02-18T05:55:19.661Z,96299
2023-02-18T05:56:29.332Z,96310
2023-02-18T05:57:37.989Z,96294
2023-02-18T05:58:46.627Z,96301
2023-02-18T05:59:56.271Z,96305
2023-02-18T06:01:04.928Z,96301
2023-02-18T06:02:14.593Z,96301
2023-02-18T06:03:24.220Z,96304
2023-02-18T06:04:32.848Z,96299
2023-02-18T06:05:41.516Z,96311
2023-02-18T06:06:50.209Z,96297
2023-02-18T06:07:58.836Z,96297
2023-02-18T06:09:08.499Z,96305
2023-02-18T06:10:17.150Z,96298
2023-02-18T06:11:25.808Z,96303
2023-02-18T06:12:34.463Z,96309
2023-02-18T06:13:44.119Z,96313
2023-02-18T06:14:52.779Z,96309
2023-02-18T06:16:00.466Z,96319
2023-02-18T06:17:09.082Z,96312
2023-02-18T06:18:19.738Z,96316
2023-02-18T06:19:29.365Z,96314
2023-02-18T06:20:38.001Z,96315
2023-02-18T06:21:47.699Z,96326
2023-02-18T06:22:57.327Z,96313
2023-02-18T06:24:06.977Z,96307
2023-02-18T06:25:15.626Z,96318
2023-02-18T06:26:25.303Z,96313
2023-02-18T06:27:34.936Z,96314
2023-02-18T06:28:42.567Z,96317
2023-02-18T06:29:52.213Z,96319
2023-02-18T06:31:01.006Z,96310
2023-02-18T06:32:09.657Z,96323
2023-02-18T06:33:20.253Z,96319
2023-02-18T06:34:27.918Z,96311
2023-02-18T06:35:37.546Z,96318
2023-02-18T06:36:47.218Z,96324
2023-02-18T06:37:54.885Z,96328
2023-02-18T06:39:04.526Z,96325
2023-02-18T06:40:14.194Z,96307
2023-02-18T06:41:22.831Z,96330
2023-02-18T06:42:32.482Z,96326
2023-02-18T06:43:40.114Z,96313
2023-02-18T06:44:48.749Z,96316
2023-02-18T06:45:58.401Z,96319
2023-02-18T06:47:07.053Z,96320
2023-02-18T06:48:16.707Z,96318
2023-02-18T06:49:26.359Z,96324
2023-02-18T06:50:36.032Z,96327
2023-02-18T06:51:45.657Z,96325
2023-02-18T06:52:54.304Z,96322
2023-02-18T06:54:01.927Z,96313
2023-02-18T06:55:11.577Z,96315
2023-02-18T06:56:19.242Z,96306
2023-02-18T06:57:28.893Z,96319
2023-02-18T06:58:37.536Z,96329
2023-02-18T06:59:46.203Z,96315
2023-02-18T07:00:55.907Z,96312
2023-02-18T07:02:04.523Z,96320
2023-02-18T07:03:13.165Z,96328
2023-02-18T07:04:22.813Z,96331
2023-02-18T07:05:31.461Z,96323
2023-02-18T07:06:41.155Z,96321
2023-02-18T07:07:50.774Z,96315
2023-02-18T07:08:59.414Z,96323
2023-02-18T07:10:09.083Z,96322
2023-02-18T07:11:18.751Z,96333
2023-02-18T07:12:28.387Z,96321
2023-02-18T07:13:38.025Z,96311
2023-02-18T07:14:46.657Z,96315
2023-02-18T07:15:56.398Z,96324
2023-02-18T07:17:04.965Z,96312
2023-02-18T07:18:14.596Z,96325
2023-02-18T07:19:24.261Z,96314
2023-02-18T07:20:33.970Z,96338
2023-02-18T07:21:43.817Z,96321
2023-02-18T07:22:53.450Z,96333
2023-02-18T07:24:01.075Z,96319
2023-02-18T07:25:10.739Z,96309
2023-02-18T07:26:20.376Z,96329
2023-02-18T07:27:29.067Z,96312
2023-02-18T07:28:38.714Z,96309
2023-02-18T07:29:47.354Z,96310
2023-02-18T07:30:57.025Z,96302
2023-02-18T07:32:06.768Z,96317
2023-02-18T07:33:14.295Z,96321
2023-02-18T07:34:22.964Z,96312
2023-02-18T07:35:31.616Z,96316
2023-02-18T07:36:40.267Z,96330
2023-02-18T07:37:49.951Z,96323
2023-02-18T07:38:59.562Z,96314
2023-02-18T07:40:08.204Z,96317
2023-02-18T07:41:17.850Z,96319
2023-02-18T07:42:26.507Z,96323
2023-02-18T07:43:35.146Z,96310
2023-02-18T07:44:44.832Z,96308
2023-02-18T07:45:53.509Z,96331
2023-02-18T07:47:03.146Z,96305
2023-02-18T07:48:10.787Z,96323
2023-02-18T07:49:20.432Z,96303
2023-02-18T07:50:29.085Z,96341
2023-02-18T07:51:37.710Z,96318
2023-02-18T07:52:47.377Z,96305
2023-02-18T07:53:56.039Z,96324
2023-02-18T07:55:04.666Z,96309
2023-02-18T07:56:13.292Z,96323
2023-02-18T07:57:21.950Z,96284
2023-02-18T07:58:31.589Z,96322
2023-02-18T07:59:39.239Z,96298
2023-02-18T08:00:47.887Z,96318
2023-02-18T08:01:57.607Z,96310
2023-02-18T08:03:05.208Z,96315
2023-02-18T08:04:13.897Z,96316
2023-02-18T08:05:22.479Z,96312
2023-02-18T08:06:32.116Z,96312
2023-02-18T08:07:41.801Z,96309
2023-02-18T08:08:50.427Z,96303
2023-02-18T08:10:00.134Z,96299
2023-02-18T08:11:18.777Z,96313
2023-02-18T08:12:20.358Z,96283
2023-02-18T08:13:28.998Z,96279
2023-02-18T08:14:38.631Z,96283
2023-02-18T08:15:48.280Z,96295
2023-02-18T08:16:58.021Z,96282
2023-02-18T08:18:05.601Z,96283
2023-02-18T08:19:14.243Z,96282
2023-02-18T08:20:23.897Z,96264
2023-02-18T08:21:33.542Z,96275
2023-02-18T08:22:42.181Z,96284
2023-02-18T08:23:50.831Z,96277
2023-02-18T08:25:00.476Z,96274
2023-02-18T08:26:10.340Z,96280
2023-02-18T08:27:19.776Z,96278
2023-02-18T08:28:29.411Z,96277
2023-02-18T08:29:39.096Z,96262
2023-02-18T08:30:47.888Z,96274
2023-02-18T08:31:56.456Z,96288
2023-02-18T08:33:06.100Z,96297
2023-02-18T08:34:14.738Z,96257
2023-02-18T08:35:24.404Z,96265
2023-02-18T08:36:33.036Z,96269
2023-02-18T08:37:52.378Z,96269
2023-02-18T08:38:53.329Z,96262
2023-02-18T08:40:00.990Z,96249
2023-02-18T08:41:10.945Z,96264
2023-02-18T08:42:20.288Z,96253
2023-02-18T08:43:29.945Z,96258
2023-02-18T08:44:39.596Z,96264
2023-02-18T08:45:48.266Z,96252
2023-02-18T08:46:56.929Z,96248
2023-02-18T08:48:18.982Z,96270
2023-02-18T08:49:17.153Z,96251
2023-02-18T08:50:25.794Z,96255
2023-02-18T08:51:34.442Z,96250
2023-02-18T08:52:43.086Z,96241
2023-02-18T08:53:52.732Z,96238
2023-02-18T08:55:00.370Z,96246
2023-02-18T08:56:08.993Z,96253
2023-02-18T08:57:17.631Z,96253
2023-02-18T08:58:26.318Z,96246
2023-02-18T08:59:34.933Z,96261
2023-02-18T09:00:44.578Z,96243
2023-02-18T09:01:53.218Z,96263
2023-02-18T09:03:02.897Z,96245
2023-02-18T09:04:11.560Z,96250
2023-02-18T09:05:21.184Z,96260
2023-02-18T09:06:30.828Z,96248
2023-02-18T09:07:39.453Z,96263
2023-02-18T09:08:48.116Z,96257
2023-02-18T09:09:56.754Z,96270
2023-02-18T09:11:05.408Z,96263
2023-02-18T09:12:15.047Z,96273
2023-02-18T09:13:22.709Z,96262
2023-02-18T09:14:32.379Z,96284
2023-02-18T09:15:42.025Z,96253
2023-02-18T09:16:51.649Z,96254
2023-02-18T09:18:00.364Z,96240
2023-02-18T09:19:09.977Z,96252
2023-02-18T09:20:18.637Z,96239
2023-02-18T09:21:28.303Z,96268
2023-02-18T09:22:35.989Z,96226
2023-02-18T09:23:44.655Z,96241
2023-02-18T09:24:54.317Z,96252
2023-02-18T09:26:02.958Z,96246
2023-02-18T09:27:11.612Z,96251
2023-02-18T09:28:21.290Z,96247
2023-02-18T09:29:30.934Z,96280
2023-02-18T09:30:39.797Z,96252
2023-02-18T09:31:49.343Z,96256
2023-02-18T09:32:57.884Z,96245
2023-02-18T09:34:07.605Z,96244
2023-02-18T09:35:16.235Z,96240
2023-02-18T09:36:25.884Z,96236
2023-02-18T09:37:34.528Z,96253
2023-02-18T09:38:43.244Z,96224
2023-02-18T09:39:52.864Z,96264
2023-02-18T09:41:01.509Z,96237
2023-02-18T09:42:11.179Z,96235
2023-02-18T09:43:20.928Z,96241
2023-02-18T09:44:28.563Z,96242
2023-02-18T09:45:37.202Z,96224
2023-02-18T09:46:45.897Z,96227
2023-02-18T09:47:54.520Z,96210
2023-02-18T09:49:03.193Z,96209
2023-02-18T09:50:12.852Z,96202
2023-02-18T09:51:22.495Z,96201
2023-02-18T09:52:31.132Z,96207
2023-02-18T09:53:39.792Z,96205
2023-02-18T09:54:49.441Z,96204
2023-02-18T09:55:57.125Z,96195
2023-02-18T09:57:05.782Z,96221
2023-02-18T09:58:14.431Z,96196
2023-02-18T09:59:24.098Z,96201
2023-02-18T10:00:33.748Z,96205
2023-02-18T10:01:42.413Z,96195
2023-02-18T10:02:52.061Z,96201
2023-02-18T10:04:01.712Z,96192
2023-02-18T10:05:09.357Z,96184
2023-02-18T10:06:18.004Z,96186
2023-02-18T10:07:28.427Z,96193
2023-02-18T10:08:36.383Z,96189
2023-02-18T10:09:45.965Z,96177
2023-02-18T10:10:53.633Z,96197
2023-02-18T10:12:03.278Z,96191
2023-02-18T10:13:11.931Z,96188
2023-02-18T10:14:20.683Z,96174
2023-02-18T10:15:29.305Z,96171
2023-02-18T10:16:38.941Z,96174
2023-02-18T10:17:47.904Z,96175
2023-02-18T10:18:57.277Z,96161
2023-02-18T10:20:08.234Z,96166
2023-02-18T10:21:15.530Z,96159
2023-02-18T10:22:25.234Z,96157
2023-02-18T10:23:32.887Z,96155
2023-02-18T10:24:41.542Z,96159
2023-02-18T10:25:50.192Z,96156
2023-02-18T10:26:58.844Z,96156
2023-02-18T10:28:08.474Z,96156
2023-02-18T10:29:16.161Z,96152
2023-02-18T10:30:25.863Z,96137
2023-02-18T10:31:35.519Z,96141
2023-02-18T10:32:44.074Z,96150
2023-02-18T10:33:53.706Z,96158
2023-02-18T10:35:03.427Z,96159
2023-02-18T10:36:13.034Z,96144
2023-02-18T10:37:22.719Z,96138
2023-02-18T10:38:31.377Z,96152
2023-02-18T10:39:40.098Z,96142
2023-02-18T10:40:50.738Z,96146
2023-02-18T10:41:59.394Z,96139
2023-02-18T10:43:09.049Z,96138
2023-02-18T10:44:17.712Z,96130
2023-02-18T10:45:26.351Z,96136
2023-02-18T10:46:36.008Z,96138
2023-02-18T10:47:44.644Z,96136
2023-02-18T10:48:53.289Z,96133
2023-02-18T10:50:02.986Z,96140
2023-02-18T10:51:11.656Z,96122
2023-02-18T10:52:20.287Z,96118
2023-02-18T10:53:28.935Z,96133
2023-02-18T10:54:37.609Z,96129
2023-02-18T10:55:47.275Z,96126
2023-02-18T10:56:54.988Z,96124
2023-02-18T10:58:03.632Z,96112
2023-02-18T10:59:13.322Z,96107
2023-02-18T11:00:20.993Z,96104
2023-02-18T11:01:30.686Z,96121
2023-02-18T11:02:40.438Z,96098
2023-02-18T11:03:50.101Z,96084
2023-02-18T11:04:59.897Z,96101
2023-02-18T11:06:08.409Z,96077
2023-02-18T11:07:17.078Z,96085
2023-02-18T11:08:27.705Z,96066
2023-02-18T11:09:36.369Z,96075
2023-02-18T11:10:46.015Z,96086
2023-02-18T11:12:07.675Z,96066
2023-02-18T11:13:05.285Z,96079
2023-02-18T11:14:14.964Z,96072
2023-02-18T11:15:24.662Z,96062
2023-02-18T11:16:34.312Z,96064
2023-02-18T11:17:43.970Z,96056
2023-02-18T11:18:51.611Z,96055
2023-02-18T11:20:00.318Z,96050
2023-02-18T11:21:09.205Z,96073
2023-02-18T11:22:17.574Z,96061
2023-02-18T11:23:27.252Z,96051
2023-02-18T11:24:36.926Z,96061
2023-02-18T11:25:46.597Z,96047
2023-02-18T11:26:56.259Z,96077
2023-02-18T11:28:03.904Z,96052
2023-02-18T11:29:13.581Z,96055
2023-02-18T11:30:22.355Z,96063
2023-02-18T11:31:30.999Z,96050
2023-02-18T11:32:40.564Z,96054
2023-02-18T11:33:49.218Z,96062
2023-02-18T11:34:57.898Z,96053
2023-02-18T11:36:07.553Z,96053
2023-02-18T11:37:15.192Z,96059
2023-02-18T11:38:23.840Z,96047
2023-02-18T11:39:32.515Z,96054
2023-02-18T11:40:42.191Z,96046
2023-02-18T11:41:51.863Z,96045
2023-02-18T11:43:00.519Z,96052
2023-02-18T11:44:09.180Z,96042
2023-02-18T11:45:18.853Z,96046
2023-02-18T11:46:27.593Z,96048
2023-02-18T11:47:37.179Z,96040
2023-02-18T11:48:44.877Z,96046
2023-02-18T11:49:53.580Z,96042
2023-02-18T11:51:04.055Z,96049
2023-02-18T11:52:12.889Z,96041
2023-02-18T11:53:22.548Z,96043
2023-02-18T11:54:31.191Z,96030
2023-02-18T11:55:40.893Z,96036
2023-02-18T11:56:52.078Z,96042
2023-02-18T11:58:00.209Z,96028
2023-02-18T11:59:08.866Z,96004
2023-02-18T12:00:18.528Z,96030
2023-02-18T12:01:27.187Z,95998
2023-02-18T12:02:36.856Z,96017
2023-02-18T12:03:45.520Z,96004
2023-02-18T12:04:54.162Z,96009
2023-02-18T12:06:03.826Z,95993
2023-02-18T12:07:13.476Z,96005
2023-02-18T12:08:22.116Z,95996
2023-02-18T12:09:31.807Z,95990
2023-02-18T12:10:40.442Z,96000
2023-02-18T12:11:50.118Z,96005
2023-02-18T12:13:00.744Z,96002
2023-02-18T12:14:09.401Z,95988
2023-02-18T12:15:19.127Z,96004
2023-02-18T12:16:27.837Z,96013
2023-02-18T12:17:36.437Z,95994
2023-02-18T12:18:45.099Z,96003
2023-02-18T12:19:54.755Z,95998
2023-02-18T12:21:04.500Z,96003
2023-02-18T12:22:13.174Z,95996
2023-02-18T12:23:22.836Z,95980
2023-02-18T12:24:32.487Z,95991
2023-02-18T12:25:41.175Z,95980
2023-02-18T12:26:49.820Z,95974
2023-02-18T12:27:58.552Z,95984
2023-02-18T12:29:08.170Z,95979
2023-02-18T12:30:17.896Z,95983
2023-02-18T12:31:25.608Z,95966
2023-02-18T12:32:34.174Z,95968
2023-02-18T12:33:43.822Z,95960
2023-02-18T12:34:52.511Z,95965
2023-02-18T12:36:01.197Z,95970
2023-02-18T12:37:10.855Z,95975
2023-02-18T12:38:20.530Z,95976
2023-02-18T12:39:30.174Z,95966
2023-02-18T12:40:38.840Z,95980
2023-02-18T12:41:47.495Z,95939
2023-02-18T12:42:56.139Z,95943
2023-02-18T12:44:03.822Z,95961
2023-02-18T12:45:12.455Z,95954
2023-02-18T12:46:22.144Z,95945
2023-02-18T12:47:30.815Z,95970
2023-02-18T12:48:40.458Z,95963
2023-02-18T12:49:48.127Z,95965
2023-02-18T12:50:57.814Z,95951
2023-02-18T12:52:07.483Z,95963
2023-02-18T12:53:17.135Z,95957
2023-02-18T12:54:26.815Z,95954
2023-02-18T12:55:35.504Z,95953
2023-02-18T12:56:45.156Z,95982
2023-02-18T12:57:55.857Z,95962
2023-02-18T12:59:03.507Z,95951
2023-02-18T13:00:13.190Z,95968
2023-02-18T13:01:22.953Z,95957
2023-02-18T13:02:30.512Z,95957
2023-02-18T13:03:39.165Z,95973
2023-02-18T13:04:48.816Z,95969
2023-02-18T13:05:57.503Z,95970
2023-02-18T13:07:07.166Z,95985
2023-02-18T13:08:14.843Z,95957
2023-02-18T13:09:23.518Z,95959
2023-02-18T13:10:33.185Z,95955
2023-02-18T13:11:41.904Z,95969
2023-02-18T13:12:51.578Z,95967
2023-02-18T13:14:01.248Z,95964
2023-02-18T13:15:10.923Z,95957
2023-02-18T13:16:20.664Z,95966
2023-02-18T13:17:30.250Z,95954
2023-02-18T13:18:38.889Z,95946
2023-02-18T13:19:48.608Z,95936
2023-02-18T13:20:57.274Z,95945
2023-02-18T13:22:07.934Z,95965
2023-02-18T13:23:16.590Z,95965
2023-02-18T13:24:25.239Z,95952
2023-02-18T13:25:34.898Z,95956
2023-02-18T13:26:44.577Z,95966
2023-02-18T13:27:53.221Z,95956
2023-02-18T13:29:02.884Z,95953
2023-02-18T13:30:11.676Z,95963
2023-02-18T13:31:21.399Z,95974
2023-02-18T13:32:30.944Z,95957
2023-02-18T13:33:40.578Z,95949
2023-02-18T13:34:50.276Z,95958
2023-02-18T13:35:59.920Z,95946
2023-02-18T13:37:08.595Z,95954
2023-02-18T13:38:18.249Z,95943
2023-02-18T13:39:25.933Z,95970
2023-02-18T13:40:35.642Z,95960
2023-02-18T13:41:45.320Z,95950
2023-02-18T13:42:54.964Z,95947
2023-02-18T13:44:04.614Z,95923
2023-02-18T13:45:13.274Z,95945
2023-02-18T13:46:22.977Z,95951
2023-02-18T13:47:30.642Z,95954
2023-02-18T13:48:40.330Z,95948
2023-02-18T13:49:49.977Z,95952
2023-02-18T13:50:57.625Z,95979
2023-02-18T13:52:06.298Z,95957
2023-02-18T13:53:14.978Z,95948
2023-02-18T13:54:24.621Z,95963
2023-02-18T13:55:34.317Z,95940
2023-02-18T13:56:41.977Z,95948
2023-02-18T13:57:51.644Z,95929
2023-02-18T13:59:01.297Z,95954
2023-02-18T14:00:09.980Z,95942
2023-02-18T14:01:18.618Z,95941
2023-02-18T14:02:27.456Z,95951
2023-02-18T14:03:36.012Z,95946
2023-02-18T14:04:45.758Z,95938
2023-02-18T14:05:55.511Z,95942
2023-02-18T14:07:05.172Z,95949
2023-02-18T14:08:14.822Z,95932
2023-02-18T14:09:24.536Z,95935
2023-02-18T14:10:33.163Z,95930
2023-02-18T14:11:41.842Z,95923
2023-02-18T14:12:52.036Z,95940
2023-02-18T14:14:01.153Z,95949
2023-02-18T14:15:09.865Z,95941
2023-02-18T14:16:18.489Z,95962
2023-02-18T14:17:28.190Z,95937
2023-02-18T14:18:37.155Z,95940
2023-02-18T14:19:46.499Z,95933
2023-02-18T14:20:55.175Z,95925
2023-02-18T14:22:05.826Z,95927
2023-02-18T14:23:15.514Z,95935
2023-02-18T14:24:24.172Z,95939
2023-02-18T14:25:33.886Z,95946
2023-02-18T14:26:43.537Z,95936
2023-02-18T14:27:51.225Z,95948
2023-02-18T14:28:59.895Z,95948
2023-02-18T14:30:09.554Z,95928
2023-02-18T14:31:21.953Z,95911
2023-02-18T14:32:29.869Z,95948
2023-02-18T14:33:39.322Z,95949
2023-02-18T14:34:48.013Z,95935
2023-02-18T14:35:56.684Z,95963
2023-02-18T14:37:05.369Z,95944
2023-02-18T14:38:14.047Z,95940
2023-02-18T14:39:22.690Z,95948
2023-02-18T14:40:32.334Z,95936
2023-02-18T14:41:41.988Z,95947
2023-02-18T14:42:50.710Z,95943
2023-02-18T14:43:59.385Z,95951
2023-02-18T14:45:09.063Z,95939
2023-02-18T14:46:17.728Z,95941
2023-02-18T14:47:26.349Z,95959
2023-02-18T14:48:36.044Z,95962
2023-02-18T14:49:45.691Z,95953